sim
Sign-in with your pilot id or email,
or register
Callsign
Passwort

Schedule Details

Flight Number: RYR5082 (4)
Departure: Paphos International Airport (LCPH) at 18:30
Arrival: Thessaloniki International Airport (LGTS) at 20:35
Route: Ryanair Passenger Schedule. Enter filed route here before submitting Pirep.

Weather Information
Getting current METAR information for LCPH 202330Z 02021KT 9999 FEW020CB SCT045 11/04 Q1012
Getting current METAR information for LGTS 202320Z 11005KT 9999 SCT025 09/07 Q1027 NOSIG

Schedule Frequency

Route Map